Pasco, WA

2:54 PM PST on December 08, 2016 (GMT -0800)
Phend Rd. Pasco, WA | | Change Station
Active Advisory: Winter Weather Advisory

Elev 587 ft 46.34 °N, 119.07 °W | Updated 13 seconds ago

Overcast
Overcast
26.2 °F
Feels Like 18 °F
N
8.3
Wind Variable Wind from West
Gusts 9.8 mph

Today
High -- | Low -- °F
--% Chance of Precip.
Yesterday
High -- | Low -- °F
Precip. -- in
Pressure 30.26 in
Visibility 10.0 miles
Clouds Overcast 9500 ft
Windchill 18 °F
Dew Point 20 °F
Humidity 76%
Rainfall 0.00 in
Snow Depth Not available.
7:27 AM 4:09 PM
Waxing Gibbous, 67% visible
METAR KPSC 082153Z 36006KT 10SM OVC095 M03/M08 A3024 RMK AO2 SLP246 T10281078
Pressure 30.26 in
Visibility 10.0 miles
Clouds Overcast 9500 ft
Windchill 18 °F
Dew Point 20 °F
Humidity 76%
Rainfall 0.00 in
Snow Depth Not available.
7:27 AM 4:09 PM
Waxing Gibbous, 67% visible
METAR KPSC 082153Z 36006KT 10SM OVC095 M03/M08 A3024 RMK AO2 SLP246 T10281078

10-Day Weather Forecast

Almanac

Astronomy

Dec. 08, 2016 Rise Set
Actual Time
Civil Twilight
Nautical Twilight
Astronomical Twilight
Moon
Length of Visible Light
Length of Day
Tomorrow will be .
, % of the Moon is Illuminated

Today's Extremes

State Highs State Lows

Community

WunderPhotos

Upload Photos

1,956,277 photos uploaded!

WunderBlog® & News

Nearby

Air Quality

  Air Quality AQ Index Pollutant
Not available.

Snow Depth

Station Depth Elevation

Earthquake Activity

City Distance Mag. Time & Date
Minimum magnitude displayed is 2.5.

Coastal Water Temperatures

Place Temperature

Stations

Nearby Weather Stations

Station Location Temp. Windchill Dew Point Humidity Wind Precip. Elev Updated Type
                   

Watches & Warnings

Winter Weather Advisory
Issued: 2:34 PM PST Dec. 8, 2016 – National Weather Service

... Winter Weather Advisory remains in effect until 1 am PST
Friday...

* snow accumulations... 2 to 5 inches.

* Locations... Pendleton... Pilot Rock... Boardman... Hermiston...
Ione... Connell... Prosser... Tri-Cities... Dayton... Waitsburg...
Walla Walla... Ellensburg... Thorp... Naches... Sunnyside...
Toppenish... Yakima.

* Snow level... basin floor.

* Timing... snow will continue this evening... diminishing by the
overnight hours.

* Impacts... area roadways will be snow covered and slick.
Localized blowing snow will be possible.

* Winds... northeast 5 to 15 mph with gusts up to 25 mph.

* Web page: for a detailed view of the hazard area visit
http://www.Wrh.NOAA.Gov/map/?Wfo=pdt.

Precautionary/preparedness actions...

A Winter Weather Advisory for snow means that periods of snow
will cause primarily travel difficulties. Be prepared for snow
covered roads and limited visibilities... and use caution while
driving.